Tiempo atmosférico en la estación meteorológica de Agulo, Santa Cruz de Tenerife (765 m.)



Fecha
DESCASC
Temp. máxima en grados centígrados (hora)
DESCASC
Temp. mínima en grados centígrados (hora)
DESCASC
Temp. media en grados centígrados
DESCASC
Racha de viento máxima en m/sg (hora)
DESCASC
Velocidad máxima media en intervalos de 10 minutos(hora)
DESCASC
Precipitaciones diarias en mm
DESCASC
Precipitaciones de 00:00 a 06:00 en mm
DESCASC
Precipitaciones de 06:00 a 12:00 en mm
DESCASC
Precipitaciones de 12:00 a 18:00 en mm
DESCASC
Precipitaciones de 18:00 a 24:00 en mm
DESCASC
06-12-2018 22.7 (14:30) 17.3 (04:00) 20 19.72 (08:00) 11.67 (05:00) 0 0 0 0 0
05-12-2018 20.3 (15:30) 14.8 (06:20) 17.5 20.28 (10:50) 14.44 (12:40) 0 0 0 0 0
04-12-2018 23.1 (13:20) 16.3 (19:30) 19.7 13.33 (23:10) 8.89 (01:40) 0 0 0 0 0
03-12-2018 22.5 (14:10) 11.8 (00:00) 17.2 11.94 (23:30) 8.61 (23:30) 0 0 0 0 0
02-12-2018 19 (15:30) 12.4 (00:00) 15.7 5.83 (19:20) 3.06 (19:20) 0 0 0 0 0
01-12-2018 18.5 (12:50) 12.2 (00:00) 15.3 6.39 (22:40) 2.5 (18:20) 0 0 0 0 0
30-11-2018 19.8 (11:30) 11.9 (00:00) 15.8 5.28 (01:20) 3.89 (01:20) 0 0 0 0 0
29-11-2018 21.4 (12:50) 12.4 (00:00) 16.9 5.83 (02:20) 4.44 (02:20) 0 0 0 0 0
28-11-2018 21 (14:20) 11.2 (00:00) 16.1 4.72 (23:20) 3.06 (23:20) 0 0 0 0 0
27-11-2018 18.8 (15:30) 13 (00:00) 15.9 6.39 (19:30) 2.5 (18:50) 0.2 0.2 0 0 0
25-11-2018 19.2 (12:10) 14.1 (00:00) 16.7 6.67 (02:30) 4.44 (02:30) 0 0 0 0 0
24-11-2018 19.8 (16:40) 9.4 (00:00) 14.6 6.67 (11:20) 4.17 (08:10) 0 0 0 0 0
23-11-2018 14.7 (14:20) 9.8 (00:00) 12.3 15.56 (08:00) 4.44 (08:00) 0.2 0.2 0 0 0
22-11-2018 13.6 (09:50) 10.3 (00:00) 12 11.11 (16:40) 5.56 (07:30) 14.6 0 7.2 6.4 1
21-11-2018 18.2 (12:00) 11.2 (00:00) 14.7 8.06 (12:40) 3.89 (11:50) 7.6 0 0 6.8 0.8
20-11-2018 18 (11:20) 11.8 (00:00) 14.9 9.17 (19:20) 6.39 (19:40) 0.2 0.2 0 0 0
19-11-2018 14 (13:30) 11.5 (00:00) 12.8 9.44 (09:40) 4.17 (09:40) 0.2 0.2 0 0 0
18-11-2018 15.6 (13:20) 12.3 (00:00) 14 8.33 (00:10) 2.78 (17:10) 0 0 0 0 0
17-11-2018 16.9 (09:10) 12.7 (00:00) 14.8 15.56 (10:50) 8.89 (10:50) 16.8 0 6.6 7.8 2.4
16-11-2018 17 (14:40) 11.7 (00:00) 14.3 9.72 (17:40) 7.22 (17:40) 0 0 0 0 0
15-11-2018 15 (10:00) 11.2 (00:00) 13.1 11.67 (08:00) 7.78 (08:00) 1.2 0 1.2 0 0
14-11-2018 16.4 (13:20) 11.7 (00:00) 14 5.83 (00:40) 2.22 (00:30) 0.2 0 0.2 0 0
13-11-2018 16.2 (12:40) 12 (00:00) 14.1 8.61 (21:30) 3.33 (02:30) 0.4 0.4 0 0 0
12-11-2018 14.5 (07:50) 12.6 (00:00) 13.6 9.44 (11:30) 4.17 (05:10) 12.4 2.8 9.6 0 0
11-11-2018 17.8 (16:30) 12.6 (00:00) 15.2 6.67 (19:20) 3.33 (21:20) 0 0 0 0 0
10-11-2018 15.9 (12:10) 12.3 (00:00) 14.1 6.67 (10:00) 2.78 (08:50) 0 0 0 0 0
09-11-2018 15.4 (15:50) 12.6 (00:00) 14 6.94 (11:00) 3.06 (11:00) 1.6 0 0.8 0 0.8

Gráficas

Temp. máximas Temp. mínimas Temp. medias Precipitaciones Rachas de viento máximas Velocidades máximas media en intervalos de 10 minutos

Datos horarios

Fecha y hora oficial Temperatura (ºC) Velocidad del viento (km/h) Dirección del viento Racha (km/h) Dirección de racha Precipitación (mm) Presión (hPa) Tendencia (hPa) Humedad (%)
2018-12-08 23:00:00 13.8 6 Norte 15 Norte 0 -- -- 99
2018-12-08 22:00:00 13.9 7 Norte 15 Norte 0 -- -- 98
2018-12-08 21:00:00 14 4 Nordeste 15 Norte 0 -- -- 97
2018-12-08 20:00:00 14.2 5 Norte 15 Norte 0 -- -- 98
2018-12-08 19:00:00 14.3 4 Nordeste 12 Nordeste 0 -- -- 97
2018-12-08 18:00:00 14.5 3 Este 8 Norte 0 -- -- 96
2018-12-08 17:00:00 14.8 5 Norte 10 Nordeste 0 -- -- 96
2018-12-08 16:00:00 15.1 4 Norte 9 Norte 0 -- -- 96
2018-12-08 15:00:00 15.2 3 Este 12 Norte 0 -- -- 95
2018-12-08 14:00:00 15.2 3 Nordeste 12 Nordeste 0 -- -- 95
2018-12-08 13:00:00 15.1 4 Nordeste 11 Sudeste 0 -- -- 94
2018-12-08 12:00:00 15.2 4 Norte 12 Este 0 -- -- 91
2018-12-08 11:00:00 15.5 3 Oeste 12 Sudeste 0 -- -- 91
2018-12-08 10:00:00 14.4 3 Este 12 Nordeste 0 -- -- 98
2018-12-08 09:00:00 14.1 4 Norte 18 Norte 0 -- -- 98
2018-12-08 08:00:00 13.9 6 Norte 18 Norte 0 -- -- 98
2018-12-08 07:00:00 13.9 4 Norte 14 Norte 0 -- -- 98
2018-12-08 06:00:00 13.7 5 Nordeste 16 Nordeste 0 -- -- 98
2018-12-08 05:00:00 13.8 10 Norte 18 Norte 0 -- -- 98
2018-12-08 04:00:00 13.5 12 Norte 15 Nordeste 0 -- -- 96
2018-12-08 03:00:00 15.2 9 Norte 19 Norte 0 -- -- 48
2018-12-08 02:00:00 14 16 Norte 24 Nordeste 0 -- -- 98
2018-12-08 01:00:00 14.1 8 Norte 17 Norte 0 -- -- 96
2018-12-08 00:00:00 13.7 7 Norte 14 Norte 0 -- -- 93
2018-12-07 23:00:00 14.6 5 Sudeste 22 Nordeste 0 -- -- 75
2018-12-07 22:00:00 13.8 6 Norte 16 Norte 0 -- -- 94
2018-12-07 21:00:00 14.9 5 Norte 16 Norte 0 -- -- 93
2018-12-07 20:00:00 15 3 Sudoeste 14 Norte 0 -- -- 89
2018-12-07 19:00:00 15.1 8 Nordeste 15 Nordeste 0 -- -- 70
2018-12-07 18:00:00 16.2 9 Norte 15 Norte 0 -- -- 83
2018-12-07 17:00:00 20.9 9 Norte 15 Norte 0 -- -- 59
2018-12-07 16:00:00 22.1 9 Norte 14 Norte 0 -- -- 51
2018-12-07 15:00:00 24.7 4 Sur 14 Sur 0 -- -- 36
2018-12-07 14:00:00 24.3 9 Sur 24 Sur 0 -- -- 29
2018-12-07 13:00:00 22.8 18 Sur 29 Sudoeste 0 -- -- 29
2018-12-07 12:00:00 21.4 17 Sudoeste 31 Sur 0 -- -- 26
2018-12-07 11:00:00 21.9 13 Sur 22 Sur 0 -- -- 25
2018-12-07 10:00:00 19.9 14 Sudoeste 30 Oeste 0 -- -- 26
2018-12-07 09:00:00 19.8 23 Sur 40 Sudoeste 0 -- -- 21
2018-12-07 08:00:00 20.4 15 Sur 33 Sur 0 -- -- 20
2018-12-07 07:00:00 21 22 Sur 39 Sur 0 -- -- 19
2018-12-07 06:00:00 21 23 Sur 44 Sur 0 -- -- 20
2018-12-07 05:00:00 20.8 24 Sur 48 Sur 0 -- -- 21
2018-12-07 04:00:00 21.1 28 Sur 53 Sur 0 -- -- 21
2018-12-07 03:00:00 21.1 30 Sur 53 Sur 0 -- -- 21
2018-12-07 02:00:00 21 35 Sur 60 Sudeste 0 -- -- 21
2018-12-07 01:00:00 20.8 27 Sur 49 Sur 0 -- -- 22
2018-12-07 00:00:00 20.7 29 Sur 49 Sur 0 -- -- 21
2018-12-06 23:00:00 20.4 28 Sur 47 Sudeste 0 -- -- 21
2018-12-06 22:00:00 20 21 Sur 32 Sur 0 -- -- 22
2018-12-06 21:00:00 18.8 11 Sur 15 Sur 0 -- -- 24
2018-12-06 20:00:00 18.7 8 Sudoeste 14 Sudoeste 0 -- -- 25
2018-12-06 19:00:00 18.5 6 Sudoeste 9 Sudoeste 0 -- -- 30
2018-12-06 18:00:00 18.5 6 Sur 15 Sur 0 -- -- 34
2018-12-06 17:00:00 19.5 11 Sur 27 Sur 0 -- -- 33
2018-12-06 16:00:00 20.2 17 Sur 36 Sudeste 0 -- -- 28
2018-12-06 15:00:00 21.2 14 Sur 44 Sudeste 0 -- -- 32
2018-12-06 14:00:00 22.1 25 Sur 50 Sudeste 0 -- -- 25
2018-12-06 13:00:00 20.9 20 Sur 49 Sur 0 -- -- 26
2018-12-06 12:00:00 20.4 27 Sur 56 Sudeste 0 -- -- 26
2018-12-06 11:00:00 20.6 25 Sur 54 Sudeste 0 -- -- 29
2018-12-06 10:00:00 20.3 32 Sudeste 63 Sudeste 0 -- -- 28
2018-12-06 09:00:00 19 36 Sur 67 Sudeste 0 -- -- 29
2018-12-06 08:00:00 18.7 35 Sur 71 Sudeste 0 -- -- 29
2018-12-06 07:00:00 18.6 30 Sudeste 66 Sudeste 0 -- -- 29
2018-12-06 06:00:00 18.8 36 Sur 66 Sudeste 0 -- -- 27
2018-12-06 05:00:00 18.7 42 Sur 66 Sudeste 0 -- -- 27
2018-12-06 04:00:00 17.3 25 Sudeste 61 Sudeste 0 -- -- 39
2018-12-06 03:00:00 18.5 38 Sudeste 62 Sur 0 -- -- 31
2018-12-06 02:00:00 18.4 38 Sudeste 61 Sudeste 0 -- -- 31
2018-12-06 01:00:00 18.2 26 Sur 65 Sur 0 -- -- 32
2018-12-06 00:00:00 18.7 35 Sur 60 Sur 0 -- -- 31
2018-12-05 23:00:00 18.2 34 Sur 54 Sur 0 -- -- 33
2018-12-05 22:00:00 17.4 27 Sur 44 Sur 0 -- -- 39
2018-12-05 21:00:00 17.5 27 Sur 64 Sur 0 -- -- 34
2018-12-05 20:00:00 17.4 23 Sur 48 Sudeste 0 -- -- 34
2018-12-05 19:00:00 17.6 30 Sur 48 Sur 0 -- -- 33
2018-12-05 18:00:00 17.9 20 Sur 50 Sudeste 0 -- -- 34
2018-12-05 17:00:00 19.3 28 Sur 71 Sudeste 0 -- -- 31
2018-12-05 16:00:00 19.8 34 Sur 64 Sur 0 -- -- 30
2018-12-05 15:00:00 20.1 42 Sur 67 Sur 0 -- -- 31
2018-12-05 14:00:00 19.7 45 Sur 72 Sur 0 -- -- 34
2018-12-05 13:00:00 19.6 48 Sur 72 Sur 0 -- -- 34
2018-12-05 12:00:00 19.7 50 Sur 67 Sur 0 -- -- 36
2018-12-05 11:00:00 19.8 43 Sur 73 Sudeste 0 -- -- 34
2018-12-05 10:00:00 19 39 Sur 64 Sudeste 0 -- -- 36
2018-12-05 09:00:00 18.3 36 Sur 57 Sur 0 -- -- 37
2018-12-05 08:00:00 17.2 27 Sudeste 50 Sudeste 0 -- -- 40
2018-12-05 07:00:00 17.1 32 Sudeste 52 Sudeste 0 -- -- 41
2018-12-05 06:00:00 15.1 14 Sudeste 24 Sudeste 0 -- -- 46
2018-12-05 05:00:00 17 19 Sudeste 50 Sudeste 0 -- -- 40
2018-12-05 04:00:00 17.2 29 Sudeste 48 Sudeste 0 -- -- 37
2018-12-05 03:00:00 17.4 26 Sudeste 48 Sudeste 0 -- -- 32
2018-12-05 02:00:00 17.2 30 Sudeste 42 Sudeste 0 -- -- 29
2018-12-05 01:00:00 16.8 17 Sur 33 Sudeste 0 -- -- 31
2018-12-05 00:00:00 17.3 19 Sur 48 Sudeste 0 -- -- 29
2018-12-04 23:00:00 17.2 23 Sur 47 Sur 0 -- -- 30
2018-12-04 22:00:00 17.6 28 Sur 44 Sur 0 -- -- 34
2018-12-04 21:00:00 17.6 19 Sur 39 Sur 0 -- -- 34
2018-12-04 20:00:00 17.1 17 Sur 32 Sur 0 -- -- 38
2018-12-04 19:00:00 17.3 15 Sur 28 Sur 0 -- -- 37
2018-12-04 18:00:00 18.4 9 Sur 16 Sur 0 -- -- 41
2018-12-04 17:00:00 19.4 9 Sur 24 Sudoeste 0 -- -- 38
2018-12-04 16:00:00 22.4 13 Sur 34 Sudeste 0 -- -- 34
2018-12-04 15:00:00 22.4 20 Sur 40 Sur 0 -- -- 36
2018-12-04 14:00:00 22.1 25 Sur 40 Sur 0 -- -- 33
2018-12-04 13:00:00 22.4 19 Sur 41 Sur 0 -- -- 32
2018-12-04 12:00:00 21.2 20 Sur 39 Sudeste 0 -- -- 31
2018-12-04 11:00:00 20.8 13 Sur 39 Sur 0 -- -- 32
2018-12-04 10:00:00 19.8 16 Sur 39 Sur 0 -- -- 31
2018-12-04 09:00:00 18.4 23 Sudeste 46 Sudeste 0 -- -- 35
2018-12-04 08:00:00 17 22 Sur 33 Sudoeste 0 -- -- 31
2018-12-04 07:00:00 17 13 Sur 26 Sur 0 -- -- 30
2018-12-04 06:00:00 17.3 18 Sur 39 Sudeste 0 -- -- 30
2018-12-04 05:00:00 17.1 22 Sur 35 Sudeste 0 -- -- 31
2018-12-04 04:00:00 17.1 20 Sur 36 Sur 0 -- -- 33
2018-12-04 03:00:00 17.8 20 Sur 44 Sur 0 -- -- 28
2018-12-04 02:00:00 17.9 28 Sur 45 Sudeste 0 -- -- 25
2018-12-04 01:00:00 17.7 26 Sur 41 Sudeste 0 -- -- 24
2018-12-04 00:00:00 17.4 25 Sur 43 Sur 0 -- -- 26
2018-12-03 23:00:00 17.3 28 Sur 38 Sudeste 0 -- -- 23
2018-12-03 22:00:00 16.4 18 Sur 26 Sur 0 -- -- 25
2018-12-03 21:00:00 16.7 11 Sudoeste 24 Sur 0 -- -- 25
2018-12-03 20:00:00 16.2 13 Sur 19 Sudoeste 0 -- -- 27
2018-12-03 19:00:00 15.9 16 Sudoeste 22 Sudoeste 0 -- -- 34
2018-12-03 18:00:00 18.7 15 Sur 28 Sudoeste 0 -- -- 23
2018-12-03 17:00:00 21.2 14 Sudoeste 26 Sudoeste 0 -- -- 21
2018-12-03 16:00:00 22.1 14 Sur 29 Sudoeste 0 -- -- 22
2018-12-03 15:00:00 22 21 Sur 35 Sur 0 -- -- 28
2018-12-03 14:00:00 22.3 15 Sur 30 Sur 0 -- -- 35
2018-12-03 13:00:00 22 16 Sur 29 Sur 0 -- -- 36
2018-12-03 12:00:00 21.2 16 Sur 32 Sur 0 -- -- 37
2018-12-03 11:00:00 20.2 15 Sur 28 Sur 0 -- -- 35
2018-12-03 10:00:00 19 12 Sur 32 Sur 0 -- -- 38
2018-12-03 09:00:00 17 10 Sur 24 Sur 0 -- -- 42
2018-12-03 08:00:00 14.7 17 Sur 26 Sur 0 -- -- 45
2018-12-03 07:00:00 14.4 11 Sudoeste 20 Sudoeste 0 -- -- 43
2018-12-03 06:00:00 12.8 11 Sudoeste 18 Sudoeste 0 -- -- 54
2018-12-03 05:00:00 11.9 6 Noroeste 16 Norte 0 -- -- 98
2018-12-03 04:00:00 12.7 6 Norte 13 Norte 0 -- -- 99
2018-12-03 03:00:00 12.2 5 Sur 10 Sudoeste 0 -- -- 95
2018-12-03 02:00:00 13.1 4 Sur 15 Nordeste 0 -- -- 97
2018-12-03 01:00:00 13.3 2 Este 10 Nordeste 0 -- -- 98
2018-12-03 00:00:00 12.4 3 Sudoeste 9 Noroeste 0 -- -- 95
2018-12-02 23:00:00 13.1 7 Norte 14 Norte 0 -- -- 96
2018-12-02 22:00:00 13.1 5 Norte 12 Norte 0 -- -- 96
2018-12-02 21:00:00 13.5 4 Norte 12 Nordeste 0 -- -- 95
2018-12-02 20:00:00 13.9 4 Noroeste 21 Norte 0 -- -- 93
2018-12-02 19:00:00 14.4 7 Noroeste 17 Noroeste 0 -- -- 92
2018-12-02 18:00:00 15.4 6 Norte 10 Norte 0 -- -- 87
2018-12-02 17:00:00 17.9 3 Sudeste 15 Sudeste 0 -- -- 76
2018-12-02 16:00:00 18.7 10 Sur 14 Sur 0 -- -- 76
2018-12-02 15:00:00 18.8 6 Sudeste 15 Este 0 -- -- 74
2018-12-02 14:00:00 17.4 10 Sudeste 15 Este 0 -- -- 82
2018-12-02 13:00:00 17.3 7 Sudeste 16 Sur 0 -- -- 79
2018-12-02 12:00:00 18 9 Sur 17 Sur 0 -- -- 75
2018-12-02 11:00:00 16.4 4 Nordeste 12 Sudeste 0 -- -- 81
2018-12-02 10:00:00 14.3 6 Noroeste 12 Norte 0 -- -- 90
2018-12-02 09:00:00 12.9 3 Nordeste 13 Este 0 -- -- 95
2018-12-02 08:00:00 12.8 4 Este 9 Nordeste 0 -- -- 98
2018-12-02 07:00:00 12.8 3 Sudeste 10 Nordeste 0 -- -- 97
2018-12-02 06:00:00 13.1 3 Sudeste 10 Sudeste 0 -- -- 99
2018-12-02 05:00:00 13.4 3 Sur 11 Sudeste 0 -- -- 99
2018-12-02 04:00:00 13.4 4 Sudeste 13 Sudeste 0 -- -- 100
2018-12-02 03:00:00 13.5 8 Este 18 Este 0 -- -- 100
2018-12-02 02:00:00 13.6 4 Sudeste 18 Nordeste 0 -- -- 100
2018-12-02 01:00:00 13.7 5 Este 18 Este 0 -- -- 100
2018-12-02 00:00:00 14.2 6 Sudeste 22 Este 0 -- -- 100
2018-12-01 23:00:00 14.4 6 Sudeste 23 Nordeste 0 -- -- 100
2018-12-01 22:00:00 14.7 3 Sur 13 Sudeste 0 -- -- 98
2018-12-01 21:00:00 14.8 4 Sur 12 Nordeste 0 -- -- 96
2018-12-01 20:00:00 14.8 3 Norte 10 Noroeste 0 -- -- 96
2018-12-01 19:00:00 14.9 2 Nordeste 17 Norte 0 -- -- 94
2018-12-01 18:00:00 15.4 4 Norte 15 Norte 0 -- -- 92
2018-12-01 17:00:00 16.4 3 Nordeste 10 Sudeste 0 -- -- 87
2018-12-01 16:00:00 16.5 3 Sur 15 Sudeste 0 -- -- 87
2018-12-01 15:00:00 16.9 4 Sudeste 14 Sudeste 0 -- -- 84
2018-12-01 14:00:00 17.7 4 Norte 9 Norte 0 -- -- 77
2018-12-01 13:00:00 17.8 4 Nordeste 11 Sur 0 -- -- 77
2018-12-01 12:00:00 17.8 4 Sur 10 Nordeste 0 -- -- 80
2018-12-01 11:00:00 15.5 4 Noroeste 9 Noroeste 0 -- -- 88
2018-12-01 10:00:00 14.2 4 Nordeste 13 Sudeste 0 -- -- 94
2018-12-01 09:00:00 13.5 3 Este 14 Nordeste 0 -- -- 97
2018-12-01 08:00:00 12.4 6 Norte 11 Norte 0 -- -- 97
2018-12-01 07:00:00 12.6 5 Norte 14 Norte 0 -- -- 98
2018-12-01 06:00:00 12.5 3 Sudeste 12 Sudoeste 0 -- -- 97
2018-12-01 05:00:00 12.5 3 Sur 11 Sur 0 -- -- 96
2018-12-01 04:00:00 12.4 3 Sur 10 Sudoeste 0 -- -- 95
2018-12-01 03:00:00 12.2 4 Sudoeste 10 Sudoeste 0 -- -- 94
2018-12-01 02:00:00 12.4 3 Sudoeste 10 Nordeste 0 -- -- 95
2018-12-01 01:00:00 12.7 3 Este 13 Nordeste 0 -- -- 97
2018-12-01 00:00:00 12.4 8 Sudoeste 15 Sudoeste 0 -- -- 94
2018-11-30 23:00:00 13.3 4 Sudoeste 11 Nordeste 0 -- -- 97
2018-11-30 22:00:00 13.2 3 Nordeste 14 Este 0 -- -- 96
2018-11-30 21:00:00 13.1 4 Sur 11 Sudoeste 0 -- -- 90
2018-11-30 20:00:00 13.2 4 Nordeste 15 Noroeste 0 -- -- 97
2018-11-30 19:00:00 13.5 4 Nordeste 8 Nordeste 0 -- -- 94
2018-11-30 18:00:00 14.3 4 Este 13 Nordeste 0 -- -- 94
2018-11-30 17:00:00 14.9 3 Nordeste 12 Nordeste 0 -- -- 92
2018-11-30 16:00:00 18.3 4 Sur 9 Sur 0 -- -- 82
2018-11-30 15:00:00 19.1 5 Sur 13 Sur 0 -- -- 79
2018-11-30 14:00:00 18.8 4 Oeste 12 Sur 0 -- -- 80
2018-11-30 13:00:00 19.7 7 Sur 15 Sudeste 0 -- -- 76
2018-11-30 12:00:00 19.7 6 Sudeste 11 Sudeste 0 -- -- 75
2018-11-30 11:00:00 18.7 6 Sudeste 14 Sur 0 -- -- 79
2018-11-30 10:00:00 16.4 4 Sudeste 9 Sudeste 0 -- -- 84
2018-11-30 09:00:00 13.7 3 Norte 13 Nordeste 0 -- -- 94
2018-11-30 08:00:00 13 10 Sudoeste 15 Sudoeste 0 -- -- 60
2018-11-30 07:00:00 12.5 3 Este 9 Nordeste 0 -- -- 97
2018-11-30 06:00:00 13 3 Este 12 Nordeste 0 -- -- 97
2018-11-30 05:00:00 12.9 4 Este 8 Nordeste 0 -- -- 96
2018-11-30 04:00:00 13.4 4 Nordeste 11 Nordeste 0 -- -- 97
2018-11-30 03:00:00 12.8 4 Noroeste 16 Sudoeste 0 -- -- 72
2018-11-30 02:00:00 14 4 Sur 19 Sudoeste 0 -- -- 67
2018-11-30 01:00:00 12.3 8 Sudoeste 14 Sudoeste 0 -- -- 77
2018-11-30 00:00:00 12.4 6 Sudoeste 12 Sudoeste 0 -- -- 90
2018-11-29 23:00:00 13.8 3 Sur 10 Nordeste 0 -- -- 91
2018-11-29 22:00:00 14.3 3 Oeste 15 Este 0 -- -- 94
2018-11-29 21:00:00 14.5 3 Sudeste 9 Nordeste 0 -- -- 92
2018-11-29 20:00:00 14.9 2 Sudoeste 13 Nordeste 0 -- -- 91
2018-11-29 19:00:00 15.1 6 Norte 9 Nordeste 0 -- -- 71
2018-11-29 18:00:00 19.4 2 Oeste 6 Norte 0 -- -- 48
2018-11-29 17:00:00 20.7 3 Norte 9 Noroeste 0 -- -- 58
2018-11-29 16:00:00 19.9 4 Norte 8 Sudeste 0 -- -- 73
2018-11-29 15:00:00 20.7 5 Sudeste 13 Sur 0 -- -- 75
2018-11-29 14:00:00 20.9 4 Sur 12 Sur 0 -- -- 72
2018-11-29 13:00:00 21.3 6 Sur 18 Sudeste 0 -- -- 67
2018-11-29 12:00:00 20.6 5 Sur 12 Sur 0 -- -- 64
2018-11-29 11:00:00 19.4 6 Nordeste 10 Norte 0 -- -- 47
2018-11-29 10:00:00 18.3 6 Norte 13 Norte 0 -- -- 48
2018-11-29 09:00:00 14.4 4 Sudoeste 13 Norte 0 -- -- 80
2018-11-29 08:00:00 13.6 4 Este 13 Sudeste 0 -- -- 98
2018-11-29 07:00:00 13.4 3 Sudoeste 12 Norte 0 -- -- 94
2018-11-29 06:00:00 13.4 2 Oeste 11 Norte 0 -- -- 94
2018-11-29 05:00:00 13.5 4 Norte 14 Norte 0 -- -- 94
2018-11-29 04:00:00 15.6 8 Sudoeste 15 Sudoeste 0 -- -- 50
2018-11-29 03:00:00 15.9 6 Oeste 21 Sudoeste 0 -- -- 41
2018-11-29 02:00:00 15.1 15 Sudoeste 21 Sudoeste 0 -- -- 52
2018-11-29 01:00:00 15.3 7 Sudoeste 14 Sudoeste 0 -- -- 46
2018-11-29 00:00:00 14.1 3 Sur 17 Sudoeste 0 -- -- 37
2018-11-28 23:00:00 12.3 4 Sudoeste 13 Sudoeste 0 -- -- 68
2018-11-28 22:00:00 12.7 3 Sudoeste 13 Norte 0 -- -- 95
2018-11-28 21:00:00 13.2 6 Norte 9 Norte 0 -- -- 98
2018-11-28 20:00:00 13.5 4 Noroeste 10 Noroeste 0 -- -- 97
2018-11-28 13:00:00 19.8 7 Sur 14 Sur 0 -- -- 74
2018-11-28 12:00:00 19.3 7 Sudeste 12 Sudeste 0 -- -- 78
2018-11-28 11:00:00 16.5 3 Oeste 10 Noroeste 0 -- -- 88
2018-11-28 10:00:00 15 4 Norte 11 Norte 0 -- -- 93
2018-11-28 09:00:00 12.6 3 Este 10 Sudoeste 0 -- -- 98
2018-11-28 08:00:00 11.6 6 Sudoeste 13 Sudoeste 0 -- -- 96
2018-11-28 07:00:00 11.8 3 Sudoeste 7 Sudoeste 0 -- -- 99
2018-11-28 06:00:00 11.5 0 Calma 7 Sudoeste 0 -- -- 98
2018-11-28 05:00:00 11.5 2 Sur 10 Norte 0 -- -- 97
2018-11-28 04:00:00 11.9 4 Norte 9 Norte 0 -- -- 99
2018-11-28 03:00:00 11.7 4 Oeste 10 Noroeste 0 -- -- 75
2018-11-28 02:00:00 12.3 8 Noroeste 11 Noroeste 0 -- -- 88
2018-11-28 01:00:00 12.4 8 Noroeste 14 Norte 0 -- -- 98
2018-11-28 00:00:00 13 3 Sudeste 9 Sudeste 0 -- -- 99
2018-11-27 23:00:00 13.5 3 Este 8 Sudeste 0 -- -- 100
2018-11-27 22:00:00 13.8 3 Sudeste 17 Nordeste 0 -- -- 100
2018-11-27 21:00:00 14 4 Sudeste 19 Sudeste 0 -- -- 100
2018-11-27 20:00:00 14.5 6 Este 23 Sudeste 0 -- -- 100
2018-11-27 19:00:00 14.4 6 Sudeste 20 Sudeste 0 -- -- 98
2018-11-27 18:00:00 14.7 6 Sudeste 15 Sudeste 0 -- -- 96
2018-11-27 17:00:00 15.6 6 Sudeste 11 Sudeste 0 -- -- 92
2018-11-27 16:00:00 17.6 4 Sur 14 Sur 0 -- -- 80
2018-11-27 15:00:00 18.2 6 Sudeste 12 Sur 0 -- -- 77
2018-11-27 14:00:00 16.9 4 Este 10 Este 0 -- -- 84
2018-11-27 13:00:00 16.7 3 Este 10 Sudeste 0 -- -- 85
2018-11-27 12:00:00 15.2 4 Nordeste 10 Nordeste 0 -- -- 96
2018-11-27 11:00:00 15.8 3 Nordeste 9 Sudeste 0 -- -- 87
2018-11-27 10:00:00 15 3 Este 9 Sudeste 0 -- -- 94
2018-11-27 09:00:00 14.2 5 Sur 15 Este 0 -- -- 98
2018-11-27 08:00:00 13.7 4 Sur 12 Este 0 -- -- 99
2018-11-27 07:00:00 13.7 7 Sudeste 15 Este 0 -- -- 99
2018-11-27 06:00:00 14 6 Sudeste 18 Sudeste 0 -- -- 100
2018-11-27 05:00:00 14.1 4 Sudeste 18 Nordeste 0 -- -- 100
2018-11-27 04:00:00 14.1 6 Sudeste 12 Sudeste 0 -- -- 100
2018-11-27 03:00:00 14 3 Sur 9 Nordeste 0 -- -- 99
2018-11-27 02:00:00 14.2 3 Nordeste 14 Norte 0.2 -- -- 100
2018-11-27 01:00:00 14.3 4 Nordeste 12 Norte 0 -- -- 100
2018-11-27 00:00:00 14.3 4 Nordeste 18 Noroeste 1.2 -- -- 100
2018-11-26 23:00:00 14.1 8 Noroeste 12 Oeste 0 -- -- 99
2018-11-26 22:00:00 13.7 5 Noroeste 10 Noroeste 0 -- -- 97
2018-11-26 21:00:00 13.6 10 Norte 13 Norte 0 -- -- 96
2018-11-26 20:00:00 14.1 6 Sudoeste 10 Sudoeste 0 -- -- 96
2018-11-26 19:00:00 14.5 3 Sur 12 Este 0 -- -- 96
2018-11-26 18:00:00 15.4 4 Sudeste 9 Este 0 -- -- 96
2018-11-26 17:00:00 15.8 2 Sur 10 Sudeste 0 -- -- 95
2018-11-26 16:00:00 16.5 3 Sudeste 11 Sudeste 0 -- -- 90
2018-11-26 15:00:00 17.7 5 Sur 10 Sudeste 0 -- -- 84
2018-11-26 14:00:00 20.1 5 Sudeste 17 Sudeste 0 -- -- 74
2018-11-26 13:00:00 18.6 8 Sur 15 Sur 0 -- -- 81
2018-11-26 12:00:00 17.1 5 Sur 11 Sur 0 -- -- 83
2018-11-26 11:00:00 15.9 4 Sudeste 12 Sudeste 0 -- -- 91
2018-11-26 10:00:00 14.6 3 Norte 9 Noroeste 0 -- -- 98
2018-11-26 09:00:00 14 0 Calma 4 Oeste 0 -- -- 98
2018-11-26 08:00:00 13.6 3 Sur 10 Sudoeste 0 -- -- 99
2018-11-26 07:00:00 13.5 3 Sudoeste 13 Sudoeste 0 -- -- 98
2018-11-26 06:00:00 13.5 4 Sudoeste 9 Sudoeste 0 -- -- 98
2018-11-26 05:00:00 13.9 0 Calma 10 Noroeste 0 -- -- 100
2018-11-26 04:00:00 13.7 3 Norte 10 Norte 0 -- -- 100
2018-11-26 03:00:00 13.7 6 Norte 11 Noroeste 0 -- -- 98
2018-11-26 02:00:00 14.1 9 Noroeste 12 Oeste 0 -- -- 98
2018-11-26 01:00:00 14.3 7 Noroeste 10 Noroeste 0 -- -- 99
2018-11-26 00:00:00 14.3 4 Noroeste 8 Sudoeste 0 -- -- 97
2018-11-25 23:00:00 14.2 6 Sudoeste 10 Sudoeste 0 -- -- 96
2018-11-25 22:00:00 15 6 Sudeste 9 Sudeste 0 -- -- 98
2018-11-25 21:00:00 15.3 5 Sudeste 14 Este 0 -- -- 98
2018-11-25 20:00:00 15.4 3 Sur 11 Nordeste 0 -- -- 98
2018-11-25 19:00:00 15.6 3 Sur 9 Nordeste 0 -- -- 97
2018-11-25 18:00:00 15.9 3 Este 9 Nordeste 0 -- -- 95
2018-11-25 17:00:00 16.4 3 Noroeste 10 Noroeste 0 -- -- 94
2018-11-25 16:00:00 16.5 3 Noroeste 13 Norte 0 -- -- 93
2018-11-25 15:00:00 16.7 4 Sudeste 14 Sudeste 0 -- -- 93
2018-11-25 14:00:00 17.9 7 Norte 15 Norte 0 -- -- 87
2018-11-25 13:00:00 18.2 6 Norte 16 Norte 0 -- -- 87
2018-11-25 12:00:00 19.1 4 Norte 12 Norte 0 -- -- 82
2018-11-25 11:00:00 18.2 5 Norte 12 Norte 0 -- -- 86
2018-11-25 10:00:00 16.2 5 Norte 14 Noroeste 0 -- -- 99
2018-11-25 09:00:00 15.3 5 Nordeste 14 Norte 0 -- -- 100
2018-11-25 08:00:00 15.1 6 Norte 18 Norte 0 -- -- 100
2018-11-25 07:00:00 14.7 9 Norte 18 Norte 0 -- -- 100
2018-11-25 06:00:00 14.8 7 Noroeste 14 Norte 0 -- -- 99
2018-11-25 05:00:00 14.9 4 Norte 16 Noroeste 0 -- -- 99
2018-11-25 04:00:00 15 13 Norte 21 Noroeste 0 -- -- 98
2018-11-25 03:00:00 14.9 12 Noroeste 24 Noroeste 0 -- -- 97
2018-11-25 02:00:00 14.8 6 Norte 9 Noroeste 0 -- -- 93
2018-11-25 01:00:00 14.7 6 Norte 20 Noroeste 0 -- -- 92
2018-11-25 00:00:00 14.8 9 Norte 15 Norte 0 -- -- 90
2018-11-24 23:00:00 14.4 10 Noroeste 13 Noroeste 0 -- -- 90
2018-11-24 22:00:00 14.4 4 Sudoeste 7 Norte 0 -- -- 90
2018-11-24 21:00:00 14.7 2 Nordeste 9 Nordeste 0 -- -- 88
2018-11-24 20:00:00 14.8 5 Norte 16 Norte 0 -- -- 88
2018-11-24 19:00:00 15.1 7 Norte 10 Norte 0 -- -- 83
2018-11-24 18:00:00 17.6 5 Norte 9 Norte 0 -- -- 75
2018-11-24 17:00:00 19.2 3 Norte 10 Noroeste 0 -- -- 67
2018-11-24 16:00:00 19 4 Norte 13 Noroeste 0 -- -- 67
2018-11-24 15:00:00 19.2 5 Norte 14 Noroeste 0 -- -- 68
2018-11-24 14:00:00 19.2 4 Norte 9 Nordeste 0 -- -- 64
2018-11-24 13:00:00 18.1 5 Norte 12 Norte 0 -- -- 63
2018-11-24 12:00:00 17.6 5 Sur 24 Este 0 -- -- 69
2018-11-24 11:00:00 15.7 5 Sudoeste 17 Noroeste 0 -- -- 61
2018-11-24 10:00:00 13.9 9 Noroeste 17 Noroeste 0 -- -- 78
2018-11-24 09:00:00 11.8 12 Noroeste 23 Noroeste 0 -- -- 83
2018-11-24 08:00:00 10.3 13 Noroeste 21 Norte 0 -- -- 91
2018-11-24 07:00:00 10.1 12 Noroeste 17 Noroeste 0 -- -- 94
2018-11-24 06:00:00 9.8 8 Noroeste 13 Noroeste 0 -- -- 95
2018-11-24 05:00:00 9.4 7 Norte 12 Noroeste 0 -- -- 96
2018-11-24 04:00:00 9.6 5 Noroeste 10 Norte 0 -- -- 96
2018-11-24 03:00:00 9.6 3 Norte 12 Noroeste 0 -- -- 94
2018-11-24 02:00:00 9.5 4 Noroeste 12 Noroeste 0 -- -- 93
2018-11-24 01:00:00 10.2 7 Noroeste 8 Norte 0 -- -- 88
2018-11-24 00:00:00 10.2 4 Noroeste 8 Norte 0 -- -- 90
2018-11-23 23:00:00 10.9 4 Nordeste 17 Norte 0 -- -- 87
2018-11-23 22:00:00 10.6 4 Norte 19 Norte 0 -- -- 88
2018-11-23 21:00:00 11.1 6 Nordeste 18 Norte 0 -- -- 88
2018-11-23 20:00:00 11.2 2 Sur 15 Norte 0 -- -- 86
2018-11-23 19:00:00 11.2 4 Noroeste 14 Nordeste 0 -- -- 86
2018-11-23 18:00:00 12.1 4 Sudoeste 14 Sudoeste 0 -- -- 80
2018-11-23 17:00:00 12.9 5 Sur 14 Nordeste 0 -- -- 80
2018-11-23 16:00:00 14.1 5 Sur 14 Sur 0 -- -- 77
2018-11-23 15:00:00 13.9 5 Sudeste 15 Sudoeste 0 -- -- 80
2018-11-23 14:00:00 13.9 4 Sudeste 14 Sudeste 0 -- -- 86
2018-11-23 13:00:00 12.8 5 Sur 17 Sudoeste 0 -- -- 90
2018-11-23 12:00:00 13.3 5 Oeste 21 Este 0 -- -- 90
2018-11-23 11:00:00 11.6 8 Sur 23 Este 0 -- -- 96
2018-11-23 10:00:00 11.3 7 Sudoeste 31 Sur 0 -- -- 91
2018-11-23 09:00:00 10.6 10 Sudoeste 35 Nordeste 0 -- -- 93
2018-11-23 08:00:00 10.4 16 Este 56 Este 0 -- -- 97
2018-11-23 07:00:00 9.8 9 Sudeste 43 Nordeste 0 -- -- 94
2018-11-23 06:00:00 10 11 Noroeste 45 Nordeste 0.2 -- -- 93
2018-11-23 05:00:00 10 9 Nordeste 41 Norte 0 -- -- 93
2018-11-23 04:00:00 10.1 9 Nordeste 30 Norte 0 -- -- 94
2018-11-23 03:00:00 10.1 7 Norte 33 Norte 0 -- -- 95
2018-11-23 02:00:00 10.1 9 Norte 29 Norte 0 -- -- 91
2018-11-23 01:00:00 10.3 8 Norte 27 Norte 0 -- -- 97
2018-11-23 00:00:00 10.4 8 Norte 22 Noroeste 0 -- -- 98
2018-11-22 23:00:00 10.6 9 Norte 28 Noroeste 0 -- -- 97
2018-11-22 22:00:00 10.3 8 Norte 23 Nordeste 0.2 -- -- 97
2018-11-22 21:00:00 10.7 7 Norte 26 Norte 0.8 -- -- 100
2018-11-22 20:00:00 10.9 6 Oeste 24 Noroeste 0 -- -- 98
2018-11-22 19:00:00 11 7 Norte 23 Nordeste 0 -- -- 99
2018-11-22 18:00:00 10.7 10 Norte 36 Norte 0.6 -- -- 98
2018-11-22 17:00:00 11.1 10 Nordeste 40 Noroeste 1 -- -- 99
2018-11-22 16:00:00 11.5 8 Norte 31 Norte 2.2 -- -- 100
2018-11-22 15:00:00 12.5 13 Norte 35 Norte 1.8 -- -- 100
2018-11-22 14:00:00 12.6 13 Noroeste 30 Noroeste 0 -- -- 99
2018-11-22 13:00:00 12.3 11 Nordeste 32 Noroeste 0.8 -- -- 100
2018-11-22 12:00:00 12.2 8 Norte 27 Norte 0.4 -- -- 100
2018-11-22 11:00:00 12.2 9 Norte 26 Noroeste 3.4 -- -- 99
2018-11-22 10:00:00 13.3 6 Norte 21 Norte 3.4 -- -- 96
2018-11-22 09:00:00 12.2 12 Noroeste 26 Noroeste 0 -- -- 96
2018-11-22 08:00:00 11.7 12 Noroeste 32 Noroeste 0 -- -- 95
2018-11-22 07:00:00 11.7 8 Oeste 26 Nordeste 0 -- -- 93
2018-11-22 06:00:00 11.5 14 Noroeste 29 Noroeste 0 -- -- 88
2018-11-22 05:00:00 11.1 10 Sudoeste 17 Sudoeste 0 -- -- 86
2018-11-22 04:00:00 11 7 Norte 23 Noroeste 0 -- -- 83
2018-11-22 03:00:00 11.1 12 Norte 20 Noroeste 0 -- -- 97
2018-11-22 02:00:00 11.4 7 Noroeste 14 Norte 0 -- -- 98
2018-11-22 01:00:00 11.5 8 Norte 12 Noroeste 0 -- -- 96
2018-11-22 00:00:00 12 5 Norte 14 Norte 0 -- -- 98
2018-11-21 23:00:00 11.9 6 Noroeste 9 Nordeste 0 -- -- 93
2018-11-21 22:00:00 11.6 6 Este 12 Sudoeste 0.2 -- -- 92
2018-11-21 21:00:00 11.6 7 Sudoeste 17 Nordeste 0.2 -- -- 96
2018-11-21 20:00:00 11.2 4 Norte 13 Norte 0 -- -- 96
2018-11-21 19:00:00 11.4 3 Noroeste 23 Norte 0.4 -- -- 97
2018-11-21 18:00:00 11.9 4 Norte 16 Norte 2.6 -- -- 99
2018-11-21 17:00:00 12.6 5 Nordeste 24 Noroeste 3.8 -- -- 99
2018-11-21 16:00:00 13.6 9 Nordeste 24 Nordeste 0.4 -- -- 94
2018-11-21 15:00:00 16.8 6 Norte 27 Noroeste 0 -- -- 77
2018-11-21 14:00:00 17.6 4 Sudoeste 19 Oeste 0 -- -- 78
2018-11-21 13:00:00 17.4 8 Sur 29 Oeste 0 -- -- 76
2018-11-21 12:00:00 18.2 12 Oeste 26 Oeste 0 -- -- 72
2018-11-21 11:00:00 16.8 4 Oeste 16 Sudoeste 0 -- -- 78
2018-11-21 10:00:00 16.1 10 Sudoeste 23 Sudoeste 0 -- -- 76
2018-11-21 09:00:00 14.9 5 Sur 14 Sudoeste 0 -- -- 77
2018-11-21 08:00:00 13.8 10 Sudoeste 15 Noroeste 0 -- -- 82
2018-11-21 07:00:00 13.5 8 Oeste 16 Oeste 0 -- -- 83
2018-11-21 06:00:00 13.1 9 Sudoeste 14 Sudoeste 0 -- -- 84
2018-11-21 05:00:00 13 5 Oeste 11 Oeste 0 -- -- 84
2018-11-21 04:00:00 12.9 5 Oeste 8 Oeste 0 -- -- 88
2018-11-21 03:00:00 12.8 0 Calma 7 Nordeste 0 -- -- 90
2018-11-21 02:00:00 12.9 0 Calma 10 Sudoeste 0 -- -- 87
2018-11-21 01:00:00 12.7 10 Sudoeste 15 Sudoeste 0 -- -- 87
2018-11-21 00:00:00 12.8 7 Sudoeste 24 Noroeste 0 -- -- 90
2018-11-20 23:00:00 13.7 20 Noroeste 27 Noroeste 0 -- -- 91
2018-11-20 22:00:00 13.8 15 Noroeste 26 Noroeste 0 -- -- 89
2018-11-20 21:00:00 13.8 20 Noroeste 32 Noroeste 0 -- -- 92
2018-11-20 20:00:00 13.8 23 Noroeste 33 Noroeste 0 -- -- 88
2018-11-20 19:00:00 13.9 16 Noroeste 25 Oeste 0 -- -- 86
2018-11-20 18:00:00 15.4 10 Noroeste 19 Noroeste 0 -- -- 82
2018-11-20 17:00:00 17.5 8 Noroeste 22 Noroeste 0 -- -- 80
2018-11-20 16:00:00 16.9 4 Noroeste 14 Este 0 -- -- 85
2018-11-20 15:00:00 17 7 Sur 14 Sudeste 0 -- -- 84
2018-11-20 14:00:00 17.5 3 Sudoeste 11 Este 0 -- -- 81
2018-11-20 13:00:00 15.6 3 Nordeste 8 Norte 0 -- -- 85
2018-11-20 12:00:00 16.5 3 Norte 13 Sur 0 -- -- 84
2018-11-20 11:00:00 17.3 5 Sur 12 Sur 0 -- -- 82
2018-11-20 10:00:00 14.9 3 Norte 6 Este 0 -- -- 85
2018-11-20 09:00:00 13.5 3 Norte 6 Sudoeste 0 -- -- 96
2018-11-20 08:00:00 12 2 Sur 6 Sudoeste 0 -- -- 96
2018-11-20 07:00:00 11.9 3 Sur 6 Oeste 0 -- -- 97
2018-11-20 06:00:00 12 3 Sudoeste 8 Nordeste 0 -- -- 98
2018-11-20 05:00:00 12.1 4 Nordeste 9 Norte 0.2 -- -- 99
2018-11-20 04:00:00 12.5 3 Oeste 8 Sudoeste 0 -- -- 100
2018-11-20 03:00:00 12.4 2 Oeste 12 Nordeste 0 -- -- 99
2018-11-20 02:00:00 11.9 4 Sur 13 Este 0 -- -- 98
2018-11-20 01:00:00 11.9 3 Este 16 Norte 0 -- -- 98
2018-11-20 00:00:00 12 5 Noroeste 14 Noroeste 0 -- -- 97
2018-11-19 23:00:00 12.6 3 Norte 12 Norte 0 -- -- 99
2018-11-19 22:00:00 12.7 4 Sudoeste 20 Sudeste 0 -- -- 99
2018-11-19 21:00:00 12.8 6 Sudoeste 27 Norte 0 -- -- 98
2018-11-19 20:00:00 12.8 7 Oeste 30 Norte 0 -- -- 98
2018-11-19 19:00:00 12.9 8 Norte 27 Norte 0 -- -- 99
2018-11-19 18:00:00 13 8 Nordeste 27 Noroeste 0 -- -- 97
2018-11-19 17:00:00 13.1 13 Norte 28 Norte 0 -- -- 94
2018-11-19 16:00:00 13.4 9 Norte 27 Norte 0 -- -- 90
2018-11-19 15:00:00 13.7 9 Norte 33 Nordeste 0 -- -- 93
2018-11-19 14:00:00 13.3 10 Norte 24 Nordeste 0 -- -- 96
2018-11-19 13:00:00 13.6 8 Norte 22 Norte 0 -- -- 93
2018-11-19 12:00:00 13.5 7 Norte 24 Norte 0 -- -- 95
2018-11-19 11:00:00 13.4 8 Norte 22 Nordeste 0 -- -- 94
2018-11-19 10:00:00 12.3 10 Norte 34 Norte 0 -- -- 100
2018-11-19 09:00:00 12.2 10 Norte 30 Norte 0 -- -- 99
2018-11-19 08:00:00 12.2 5 Este 27 Noroeste 0 -- -- 95
2018-11-19 07:00:00 12.1 11 Norte 30 Norte 0 -- -- 97
2018-11-19 06:00:00 11.5 8 Norte 30 Norte 0 -- -- 95
2018-11-19 05:00:00 12.2 10 Norte 27 Noroeste 0.2 -- -- 98
2018-11-19 04:00:00 11.8 6 Nordeste 25 Norte 0 -- -- 92
2018-11-19 03:00:00 12.3 7 Norte 28 Noroeste 0 -- -- 95
2018-11-19 02:00:00 12.4 9 Norte 26 Noroeste 0 -- -- 90
2018-11-19 01:00:00 12.4 5 Nordeste 21 Norte 0 -- -- 91
2018-11-19 00:00:00 12.3 7 Norte 18 Norte 0 -- -- 90
2018-11-18 23:00:00 12.5 5 Nordeste 21 Nordeste 0 -- -- 94
2018-11-18 22:00:00 12.6 9 Norte 23 Noroeste 0 -- -- 91
2018-11-18 21:00:00 12.7 6 Sudoeste 18 Noroeste 0 -- -- 91
2018-11-18 20:00:00 12.6 4 Nordeste 28 Noroeste 0 -- -- 88
2018-11-18 19:00:00 12.7 10 Norte 25 Noroeste 0 -- -- 89
2018-11-18 18:00:00 12.8 6 Norte 26 Noroeste 0 -- -- 91
2018-11-18 17:00:00 13 8 Norte 24 Noroeste 0 -- -- 91
2018-11-18 16:00:00 13.3 8 Norte 26 Norte 0 -- -- 89
2018-11-18 15:00:00 14.1 7 Norte 24 Norte 0 -- -- 90
2018-11-18 14:00:00 14.5 5 Sudoeste 20 Este 0 -- -- 88
2018-11-18 13:00:00 14.9 8 Norte 22 Norte 0 -- -- 86
2018-11-18 12:00:00 14.5 8 Norte 18 Oeste 0 -- -- 90
2018-11-18 11:00:00 12.9 7 Oeste 18 Norte 0 -- -- 95
2018-11-18 10:00:00 12.7 8 Norte 20 Norte 0 -- -- 97
2018-11-18 09:00:00 12.7 7 Norte 21 Norte 0 -- -- 97
2018-11-18 08:00:00 12.4 5 Nordeste 20 Nordeste 0 -- -- 96
2018-11-18 07:00:00 12.4 7 Norte 21 Norte 0 -- -- 96
2018-11-18 06:00:00 12.4 5 Norte 18 Noroeste 0 -- -- 94
2018-11-18 05:00:00 12.5 5 Noroeste 20 Noroeste 0 -- -- 94
2018-11-18 04:00:00 12.4 6 Nordeste 27 Nordeste 0 -- -- 91
2018-11-18 03:00:00 12.6 6 Oeste 25 Norte 0 -- -- 95
2018-11-18 02:00:00 12.7 8 Norte 26 Nordeste 0 -- -- 94
2018-11-18 01:00:00 12.6 9 Norte 30 Noroeste 0 -- -- 92
2018-11-18 00:00:00 12.8 9 Norte 26 Noroeste 0 -- -- 93
2018-11-17 23:00:00 12.8 7 Norte 30 Noroeste 0 -- -- 93
2018-11-17 22:00:00 13 12 Norte 28 Nordeste 0 -- -- 96
2018-11-17 21:00:00 13.4 6 Norte 33 Noroeste 0 -- -- 99
2018-11-17 20:00:00 13.4 11 Norte 28 Norte 0.2 -- -- 99
2018-11-17 19:00:00 13.3 7 Norte 40 Norte 2.2 -- -- 99
2018-11-17 18:00:00 14.2 9 Noroeste 31 Noroeste 0.2 -- -- 98
2018-11-17 17:00:00 14.9 8 Norte 21 Norte 0 -- -- 96
2018-11-17 16:00:00 16.2 9 Norte 19 Oeste 0 -- -- 92
2018-11-17 15:00:00 15.3 7 Nordeste 25 Noroeste 0 -- -- 99
2018-11-17 14:00:00 15.4 9 Norte 29 Norte 1.6 -- -- 100
2018-11-17 13:00:00 15.2 10 Norte 38 Noroeste 6 -- -- 99
2018-11-17 12:00:00 16.2 18 Noroeste 55 Noroeste 6 -- -- 99
2018-11-17 11:00:00 16.5 32 Noroeste 56 Noroeste 0.4 -- -- 98
2018-11-17 10:00:00 16 17 Noroeste 45 Noroeste 0.2 -- -- 96
2018-11-17 09:00:00 16.3 13 Sudoeste 50 Oeste 0 -- -- 88
2018-11-17 08:00:00 15.5 19 Noroeste 37 Oeste 0 -- -- 86
2018-11-17 07:00:00 15.3 13 Noroeste 35 Noroeste 0 -- -- 90
2018-11-17 06:00:00 15.1 24 Noroeste 46 Oeste 0 -- -- 84
2018-11-17 05:00:00 14.2 20 Oeste 38 Noroeste 0 -- -- 91
2018-11-17 04:00:00 14.1 20 Oeste 42 Noroeste 0 -- -- 86
2018-11-17 03:00:00 13.6 8 Oeste 29 Oeste 0 -- -- 86
2018-11-17 02:00:00 13.6 11 Oeste 30 Oeste 0 -- -- 82
2018-11-17 01:00:00 13.3 6 Sudoeste 27 Oeste 0 -- -- 80
2018-11-17 00:00:00 13 15 Oeste 27 Sudoeste 0 -- -- 84
2018-11-16 23:00:00 12.3 11 Noroeste 23 Oeste 0 -- -- 84
2018-11-16 22:00:00 13 23 Oeste 34 Oeste 0 -- -- 82
2018-11-16 21:00:00 12.7 18 Oeste 29 Oeste 0 -- -- 83
2018-11-16 20:00:00 12.5 16 Noroeste 28 Noroeste 0 -- -- 86
2018-11-16 19:00:00 12.5 14 Noroeste 28 Noroeste 0 -- -- 86
2018-11-16 18:00:00 13.1 26 Noroeste 35 Noroeste 0 -- -- 84
2018-11-16 17:00:00 15.1 21 Noroeste 30 Noroeste 0 -- -- 76
2018-11-16 16:00:00 15.9 19 Noroeste 28 Noroeste 0 -- -- 72
2018-11-16 15:00:00 16.8 8 Noroeste 21 Noroeste 0 -- -- 71
2018-11-16 14:00:00 15.8 7 Norte 21 Norte 0 -- -- 81
2018-11-16 13:00:00 15.4 5 Norte 19 Noroeste 0 -- -- 83
2018-11-16 12:00:00 14.9 7 Norte 18 Norte 0 -- -- 85
2018-11-16 11:00:00 15.1 7 Norte 16 Nordeste 0 -- -- 85
2018-11-16 10:00:00 14 0 Calma 8 Noroeste 0 -- -- 88
2018-11-16 09:00:00 12.9 3 Nordeste 10 Nordeste 0 -- -- 92
2018-11-16 08:00:00 12.2 5 Norte 15 Nordeste 0 -- -- 92
2018-11-16 07:00:00 12.2 6 Norte 24 Oeste 0 -- -- 92
2018-11-16 06:00:00 12.4 9 Norte 24 Norte 0 -- -- 91
2018-11-16 05:00:00 12.4 8 Norte 24 Noroeste 0 -- -- 87
2018-11-16 04:00:00 12.3 7 Nordeste 19 Norte 0 -- -- 91
2018-11-16 03:00:00 12.3 8 Norte 22 Norte 0 -- -- 93
2018-11-16 02:00:00 11.9 6 Norte 20 Nordeste 0 -- -- 92
2018-11-16 01:00:00 11.8 6 Norte 20 Noroeste 0 -- -- 90
2018-11-16 00:00:00 12.3 5 Norte 14 Noroeste 0 -- -- 93
2018-11-15 23:00:00 12.5 6 Noroeste 19 Norte 0 -- -- 90
2018-11-15 22:00:00 12.5 6 Norte 21 Noroeste 0 -- -- 91
2018-11-15 21:00:00 12.8 7 Norte 21 Norte 0 -- -- 92
2018-11-15 20:00:00 12.8 6 Norte 25 Noroeste 0 -- -- 90
2018-11-15 19:00:00 13.1 5 Este 26 Norte 0 -- -- 91
2018-11-15 18:00:00 13 6 Nordeste 23 Norte 0 -- -- 86
2018-11-15 17:00:00 13.5 5 Norte 19 Norte 0 -- -- 88
2018-11-15 16:00:00 13.8 8 Norte 21 Norte 0 -- -- 91
2018-11-15 15:00:00 14.6 8 Norte 17 Norte 0 -- -- 90
2018-11-15 14:00:00 14.2 8 Norte 28 Nordeste 0 -- -- 95
2018-11-15 13:00:00 13.8 10 Norte 26 Norte 0 -- -- 100
2018-11-15 12:00:00 13.7 8 Norte 31 Noroeste 0.2 -- -- 100
2018-11-15 11:00:00 13.8 10 Nordeste 23 Noroeste 1 -- -- 99
2018-11-15 10:00:00 15 9 Norte 37 Noroeste 0 -- -- 90
2018-11-15 09:00:00 14 23 Noroeste 41 Noroeste 0 -- -- 89
2018-11-15 08:00:00 12.7 28 Noroeste 42 Oeste 0 -- -- 90
2018-11-15 07:00:00 12.4 23 Noroeste 41 Noroeste 0 -- -- 87
2018-11-15 06:00:00 12.2 19 Noroeste 31 Noroeste 0 -- -- 92
2018-11-15 05:00:00 12.4 19 Noroeste 35 Noroeste 0 -- -- 95
2018-11-15 04:00:00 11.8 16 Noroeste 28 Noroeste 0 -- -- 93
2018-11-15 03:00:00 11.5 8 Noroeste 17 Noroeste 0 -- -- 85
2018-11-15 02:00:00 11.2 4 Oeste 11 Oeste 0 -- -- 84
2018-11-15 01:00:00 11.4 7 Noroeste 10 Noroeste 0 -- -- 93
2018-11-15 00:00:00 11.7 6 Sudoeste 11 Sudoeste 0 -- -- 95
2018-11-14 23:00:00 12.5 0 Calma 13 Norte 0 -- -- 97
2018-11-14 22:00:00 12.8 5 Noroeste 17 Norte 0 -- -- 97
2018-11-14 21:00:00 12.9 3 Sudeste 14 Sudeste 0 -- -- 97
2018-11-14 20:00:00 13.2 4 Sudeste 13 Sudeste 0 -- -- 97
2018-11-14 19:00:00 13.1 3 Sudeste 18 Norte 0 -- -- 92
2018-11-14 18:00:00 13.3 4 Sudoeste 18 Noroeste 0 -- -- 91
2018-11-14 17:00:00 13.7 7 Noroeste 16 Norte 0 -- -- 88
2018-11-14 16:00:00 15.3 4 Nordeste 18 Noroeste 0 -- -- 80
2018-11-14 15:00:00 14.4 5 Norte 18 Norte 0 -- -- 86
2018-11-14 14:00:00 16.3 5 Noroeste 16 Norte 0 -- -- 82
2018-11-14 13:00:00 15.7 5 Sudeste 13 Sudeste 0 -- -- 82
2018-11-14 12:00:00 14 5 Sudeste 15 Nordeste 0.2 -- -- 91
2018-11-14 11:00:00 14.5 3 Oeste 13 Norte 0 -- -- 88
2018-11-14 10:00:00 14.1 3 Nordeste 10 Sur 0 -- -- 87
2018-11-14 09:00:00 12.8 3 Sur 14 Sudeste 0 -- -- 98
2018-11-14 08:00:00 12.3 5 Este 13 Nordeste 0 -- -- 97
2018-11-14 07:00:00 12.3 4 Sudoeste 17 Nordeste 0 -- -- 99
2018-11-14 06:00:00 11.9 3 Sudoeste 13 Este 0 -- -- 97
2018-11-14 05:00:00 11.8 3 Sudeste 13 Oeste 0 -- -- 98
2018-11-14 04:00:00 12 7 Sur 17 Sudeste 0 -- -- 96
2018-11-14 03:00:00 12 5 Sudeste 14 Nordeste 0 -- -- 99
2018-11-14 02:00:00 12.2 4 Sudoeste 14 Oeste 0 -- -- 100
2018-11-14 01:00:00 11.9 5 Sur 21 Sudeste 0 -- -- 98
2018-11-14 00:00:00 12.1 4 Sudeste 29 Este 0 -- -- 97
2018-11-13 23:00:00 12.5 7 Sudeste 22 Este 0 -- -- 94
2018-11-13 22:00:00 12.6 9 Este 31 Este 0 -- -- 96
2018-11-13 21:00:00 12.7 9 Sudeste 26 Sudeste 0 -- -- 96
2018-11-13 20:00:00 12.3 8 Este 21 Este 0 -- -- 97
2018-11-13 19:00:00 12.5 8 Sudeste 22 Sudeste 0 -- -- 94
2018-11-13 18:00:00 12.7 5 Sudeste 24 Sudeste 0 -- -- 98
2018-11-13 17:00:00 13.2 5 Sudeste 21 Este 0 -- -- 94
2018-11-13 16:00:00 13.4 8 Sudeste 23 Este 0 -- -- 93
2018-11-13 15:00:00 13.9 9 Sur 21 Sur 0 -- -- 89
2018-11-13 14:00:00 14.1 8 Sudeste 24 Este 0 -- -- 87
2018-11-13 13:00:00 15.8 9 Sudeste 28 Nordeste 0 -- -- 83
2018-11-13 12:00:00 14.3 7 Sudeste 24 Nordeste 0 -- -- 87
2018-11-13 11:00:00 13.5 9 Este 27 Sur 0 -- -- 90
2018-11-13 10:00:00 14.2 8 Sudeste 26 Este 0 -- -- 89
2018-11-13 09:00:00 12.7 10 Este 28 Este 0 -- -- 93
2018-11-13 08:00:00 12.4 10 Sudeste 29 Sudeste 0 -- -- 94
2018-11-13 07:00:00 12 9 Sur 26 Este 0 -- -- 89
2018-11-13 06:00:00 12.3 11 Este 28 Nordeste 0 -- -- 92
2018-11-13 05:00:00 12.2 9 Sudeste 22 Nordeste 0 -- -- 96
2018-11-13 04:00:00 12.1 10 Sudeste 28 Nordeste 0 -- -- 94
2018-11-13 03:00:00 12.6 10 Este 29 Este 0.4 -- -- 92
2018-11-13 02:00:00 12.7 9 Este 28 Este 0 -- -- 92
2018-11-13 01:00:00 12.5 10 Sudeste 30 Sudeste 0 -- -- 89
2018-11-13 00:00:00 12.7 11 Sudeste 25 Sudeste 0 -- -- 92
2018-11-12 23:00:00 12.7 9 Sur 29 Este 0 -- -- 99
2018-11-12 22:00:00 13.2 10 Sur 26 Sudeste 0 -- -- 96
2018-11-12 21:00:00 13.1 11 Sudeste 26 Sudeste 0 -- -- 96
2018-11-12 20:00:00 13 9 Sudeste 26 Este 0 -- -- 93
2018-11-12 19:00:00 13.2 10 Sudoeste 21 Sur 0 -- -- 97
2018-11-12 18:00:00 12.8 8 Sudoeste 27 Sur 0 -- -- 89
2018-11-12 17:00:00 13.2 10 Sur 24 Sudoeste 0 -- -- 91
2018-11-12 16:00:00 13.6 8 Sudoeste 22 Nordeste 0 -- -- 93
2018-11-12 15:00:00 13.6 8 Sudoeste 19 Sudoeste 0 -- -- 95
2018-11-12 14:00:00 13.5 10 Sudoeste 27 Este 0 -- -- 100
2018-11-12 13:00:00 13.3 10 Sur 32 Oeste 0 -- -- 100
2018-11-12 12:00:00 13.5 10 Sur 34 Norte 0 -- -- 100
2018-11-12 11:00:00 14.1 9 Sur 26 Sudeste 0 -- -- 100
2018-11-12 10:00:00 13.9 8 Norte 31 Norte 0.2 -- -- 100
2018-11-12 09:00:00 14.2 12 Norte 33 Noroeste 6.6 -- -- 100
2018-11-12 08:00:00 14.5 9 Noroeste 32 Nordeste 2.4 -- -- 100
2018-11-12 07:00:00 14.2 6 Nordeste 23 Norte 0.4 -- -- 100
2018-11-12 06:00:00 14.2 7 Norte 24 Norte 2.8 -- -- 99
2018-11-12 05:00:00 14.3 13 Noroeste 25 Norte 0 -- -- 97
2018-11-12 04:00:00 14.2 12 Noroeste 22 Noroeste 0 -- -- 99
2018-11-12 03:00:00 13.6 8 Norte 18 Noroeste 0 -- -- 99
2018-11-12 02:00:00 13.4 8 Norte 18 Norte 0 -- -- 98
2018-11-12 01:00:00 13.3 6 Norte 14 Noroeste 0 -- -- 99
2018-11-12 00:00:00 13.4 4 Norte 13 Norte 0 -- -- 97
2018-11-11 23:00:00 14 4 Norte 18 Norte 0 -- -- 95
2018-11-11 22:00:00 14.1 6 Nordeste 23 Norte 0 -- -- 91
2018-11-11 21:00:00 13.9 9 Norte 21 Norte 0 -- -- 91
2018-11-11 20:00:00 14.1 9 Nordeste 24 Norte 0 -- -- 94
2018-11-11 19:00:00 14.3 7 Norte 20 Norte 0 -- -- 93
2018-11-11 18:00:00 14.7 7 Norte 23 Norte 0 -- -- 91
2018-11-11 17:00:00 16 4 Norte 17 Norte 0 -- -- 86
2018-11-11 16:00:00 17.1 7 Norte 16 Nordeste 0 -- -- 79
2018-11-11 15:00:00 16.4 5 Norte 17 Noroeste 0 -- -- 81
2018-11-11 14:00:00 16.8 5 Sur 13 Sudoeste 0 -- -- 76
2018-11-11 13:00:00 15.4 3 Oeste 14 Norte 0 -- -- 86
2018-11-11 12:00:00 15.1 6 Sudeste 13 Sudeste 0 -- -- 90
2018-11-11 11:00:00 15.4 6 Sudeste 19 Sudeste 0 -- -- 81
2018-11-11 10:00:00 14.9 8 Sudeste 15 Este 0 -- -- 83
2018-11-11 09:00:00 13.7 4 Sur 11 Este 0 -- -- 90
2018-11-11 08:00:00 13 3 Sudoeste 12 Este 0 -- -- 91
2018-11-11 07:00:00 12.6 5 Sudoeste 9 Sudoeste 0 -- -- 94
2018-11-11 06:00:00 12.6 3 Sur 12 Sudoeste 0 -- -- 95
2018-11-11 05:00:00 13.1 5 Sudoeste 14 Sudeste 0 -- -- 98
2018-11-11 04:00:00 13.2 3 Sudeste 13 Norte 0 -- -- 99
2018-11-11 03:00:00 12.8 6 Sudeste 13 Este 0 -- -- 96
2018-11-11 02:00:00 13.3 4 Sudeste 10 Nordeste 0 -- -- 98
2018-11-11 01:00:00 13.6 4 Este 13 Este 0 -- -- 99
2018-11-11 00:00:00 13.7 6 Este 15 Nordeste 0 -- -- 99
2018-11-10 23:00:00 13.8 3 Sudeste 11 Este 0 -- -- 98
2018-11-10 22:00:00 13.3 3 Sudeste 15 Nordeste 0 -- -- 95
2018-11-10 21:00:00 13.2 5 Este 14 Este 0 -- -- 95
2018-11-10 20:00:00 13.2 5 Este 20 Este 0 -- -- 94
2018-11-10 19:00:00 13.8 5 Este 19 Este 0 -- -- 95
2018-11-10 18:00:00 14 5 Sudeste 16 Este 0 -- -- 91
2018-11-10 17:00:00 14.3 6 Sudeste 17 Sudeste 0 -- -- 91
2018-11-10 16:00:00 14.5 6 Sudeste 19 Este 0 -- -- 93
2018-11-10 15:00:00 15.1 8 Sudeste 17 Sudeste 0 -- -- 93
2018-11-10 14:00:00 15.3 5 Sudeste 16 Sudeste 0 -- -- 95
2018-11-10 13:00:00 15.4 6 Sudeste 17 Sudeste 0 -- -- 94
2018-11-10 12:00:00 15.8 7 Este 21 Sudeste 0 -- -- 90
2018-11-10 11:00:00 14.5 6 Este 22 Este 0 -- -- 97
2018-11-10 10:00:00 14 8 Este 24 Sudeste 0 -- -- 100
2018-11-10 09:00:00 13.5 8 Este 22 Sudeste 0 -- -- 100
2018-11-10 08:00:00 13.3 4 Sudeste 15 Nordeste 0 -- -- 100
2018-11-10 07:00:00 12.8 3 Este 15 Este 0 -- -- 99
2018-11-10 06:00:00 12.4 5 Este 15 Este 0 -- -- 97
2018-11-10 05:00:00 12.9 4 Este 17 Sudeste 0 -- -- 97
2018-11-10 04:00:00 12.7 5 Este 16 Nordeste 0 -- -- 98
2018-11-10 03:00:00 12.7 4 Sudeste 15 Sudeste 0 -- -- 98
2018-11-10 02:00:00 12.7 5 Este 15 Nordeste 0 -- -- 98
2018-11-10 01:00:00 13 5 Sudeste 19 Nordeste 0 -- -- 97
2018-11-10 00:00:00 13 5 Sudeste 16 Este 0 -- -- 98
2018-11-09 23:00:00 13.6 6 Sur 18 Sudoeste 0 -- -- 100
2018-11-09 22:00:00 13.9 7 Sudeste 16 Este 0.8 -- -- 100
2018-11-09 21:00:00 13.9 5 Sudeste 13 Sur 0 -- -- 99
2018-11-09 20:00:00 14.2 5 Sudeste 19 Nordeste 0 -- -- 100
2018-11-09 19:00:00 14.2 6 Sur 20 Nordeste 0 -- -- 100
2018-11-09 18:00:00 14.5 4 Sur 17 Sudeste 0 -- -- 99
2018-11-09 17:00:00 14.8 7 Sudeste 16 Sur 0 -- -- 99
2018-11-09 16:00:00 15.4 3 Sudoeste 15 Este 0 -- -- 98
2018-11-09 15:00:00 15 4 Sudeste 23 Sudeste 0 -- -- 100
2018-11-09 14:00:00 15 7 Este 23 Este 0 -- -- 100
2018-11-09 13:00:00 15 7 Sudeste 14 Este 0 -- -- 100
2018-11-09 12:00:00 14.8 6 Este 21 Sudeste 0 -- -- 100
2018-11-09 11:00:00 15 11 Este 25 Sudeste 0 -- -- 100
2018-11-09 10:00:00 14.9 7 Este 20 Sudeste 0 -- -- 100
2018-11-09 09:00:00 14.4 5 Este 20 Sudeste 0.8 -- -- 100
2018-11-09 08:00:00 14.4 5 Este 15 Nordeste 0 -- -- 99
2018-11-09 07:00:00 13.9 4 Este 12 Sudeste 0 -- -- 98
2018-11-09 06:00:00 13.4 4 Oeste 11 Este 0 -- -- 95
2018-11-09 05:00:00 13.5 5 Este 13 Nordeste 0 -- -- 92
2018-11-09 04:00:00 13.3 3 Norte 14 Este 0 -- -- 97
2018-11-09 03:00:00 12.9 6 Sudeste 13 Sudeste 0 -- -- 96
2018-11-09 02:00:00 13 6 Sudeste 15 Sudoeste 0 -- -- 96
2018-11-09 01:00:00 13.1 6 Sudoeste 10 Sudoeste 0 -- -- 94
2018-11-09 00:00:00 13.4 3 Oeste 9 Sudoeste 0 -- -- 93